Time;durP1;ratioP1;P1;durP2;ratioP2;P2;SDS_P1;SDS_P2;PMS_P1;PMS_P2;Temp;Humidity;BMP_temperature;BMP_pressure;BME280_temperature;BME280_humidity;BME280_pressure;Samples;Min_cycle;Max_cycle;Signal;HPM_P1;HPM_P2
2024/01/22 00:01:13;;;;;;;1.83;0.98;;;19.40;48.30;;;;;;5034648;28;20061;-50
2024/01/22 00:03:39;;;;;;;1.35;1.20;;;19.40;48.30;;;;;;5028446;28;20033;-53
2024/01/22 00:06:05;;;;;;;1.63;1.33;;;19.40;48.20;;;;;;5044397;28;20037;-51
2024/01/22 00:08:30;;;;;;;1.95;1.10;;;19.40;48.20;;;;;;5037922;28;20098;-52
2024/01/22 00:10:56;;;;;;;2.38;1.08;;;19.40;48.30;;;;;;5042324;28;20504;-46
2024/01/22 00:13:21;;;;;;;1.98;0.93;;;19.40;48.30;;;;;;5043261;28;20145;-52
2024/01/22 00:15:47;;;;;;;2.95;1.30;;;19.40;48.30;;;;;;5035934;28;20441;-47
2024/01/22 00:18:12;;;;;;;2.17;1.30;;;19.40;48.30;;;;;;5025080;28;20093;-55
2024/01/22 00:20:37;;;;;;;2.03;1.30;;;19.40;48.30;;;;;;5041511;28;20095;-51
2024/01/22 00:23:03;;;;;;;2.35;1.40;;;19.40;48.30;;;;;;5024041;28;20034;-49
2024/01/22 00:25:29;;;;;;;3.50;1.25;;;19.30;48.30;;;;;;5040732;28;20039;-53
2024/01/22 00:27:54;;;;;;;1.60;0.98;;;19.30;48.30;;;;;;5042720;28;20481;-51
2024/01/22 00:30:20;;;;;;;2.03;1.00;;;19.30;48.30;;;;;;5037003;28;20053;-50
2024/01/22 00:32:45;;;;;;;1.92;1.23;;;19.30;48.30;;;;;;5038663;28;20139;-50
2024/01/22 00:35:11;;;;;;;2.30;1.10;;;19.30;48.30;;;;;;5040875;28;20025;-53
2024/01/22 00:37:36;;;;;;;1.17;1.08;;;19.30;48.30;;;;;;5038292;28;20301;-51
2024/01/22 00:40:02;;;;;;;2.78;1.70;;;19.30;48.30;;;;;;5040859;28;20029;-49
2024/01/22 00:42:27;;;;;;;2.08;1.17;;;19.30;48.30;;;;;;5041846;28;20489;-51
2024/01/22 00:44:53;;;;;;;2.00;1.08;;;19.30;48.30;;;;;;5036320;28;20025;-50
2024/01/22 00:47:19;;;;;;;1.98;1.38;;;19.30;48.30;;;;;;5047358;28;20021;-50
2024/01/22 00:49:44;;;;;;;1.23;0.68;;;19.30;48.30;;;;;;5017721;28;20029;-50
2024/01/22 00:52:10;;;;;;;2.03;1.33;;;19.30;48.30;;;;;;5035201;28;20030;-49
2024/01/22 00:54:35;;;;;;;1.75;1.00;;;19.30;48.30;;;;;;5043694;28;20133;-48
2024/01/22 00:57:01;;;;;;;1.25;0.80;;;19.30;48.30;;;;;;5034258;28;20052;-49
2024/01/22 00:59:26;;;;;;;1.88;1.15;;;19.20;48.30;;;;;;5034258;28;20094;-51
2024/01/22 01:01:51;;;;;;;2.15;0.95;;;19.30;48.30;;;;;;5044233;28;20029;-49
2024/01/22 01:04:17;;;;;;;2.70;1.13;;;19.30;48.30;;;;;;5033319;28;20041;-49
2024/01/22 01:06:43;;;;;;;2.10;0.95;;;19.20;48.30;;;;;;5039509;28;20039;-48
2024/01/22 01:09:08;;;;;;;1.80;1.00;;;19.20;48.30;;;;;;5044119;28;20402;-47
2024/01/22 01:11:34;;;;;;;1.27;1.17;;;19.20;48.40;;;;;;5038589;28;20490;-50
2024/01/22 01:14:00;;;;;;;1.83;1.27;;;19.10;48.40;;;;;;5038348;28;20033;-49
2024/01/22 01:16:25;;;;;;;2.08;1.25;;;19.10;48.50;;;;;;5041661;28;20039;-48
2024/01/22 01:18:51;;;;;;;2.45;1.48;;;19.10;48.60;;;;;;5038098;28;20069;-49
2024/01/22 01:21:17;;;;;;;1.35;1.00;;;19.00;48.60;;;;;;5042705;28;20398;-49
2024/01/22 01:23:43;;;;;;;2.05;1.10;;;18.90;48.70;;;;;;5042324;28;20034;-49
2024/01/22 01:26:08;;;;;;;3.17;1.38;;;18.90;48.80;;;;;;5038863;28;20040;-50
2024/01/22 01:28:34;;;;;;;1.27;0.95;;;18.80;48.80;;;;;;5039759;28;20371;-50
2024/01/22 01:31:00;;;;;;;1.33;1.00;;;18.90;49.00;;;;;;5039728;28;20033;-49
2024/01/22 01:33:25;;;;;;;4.32;1.20;;;18.80;49.00;;;;;;5035199;28;20491;-51
2024/01/22 01:35:51;;;;;;;1.80;1.05;;;18.80;49.00;;;;;;5036845;28;20678;-51
2024/01/22 01:38:16;;;;;;;1.13;1.02;;;18.70;49.10;;;;;;5039465;28;20091;-51
2024/01/22 01:40:42;;;;;;;1.65;1.13;;;18.70;49.10;;;;;;5039525;28;20033;-49
2024/01/22 01:43:08;;;;;;;1.30;1.02;;;18.70;49.20;;;;;;5037712;28;20494;-48
2024/01/22 01:45:33;;;;;;;1.85;1.30;;;18.70;49.10;;;;;;5040937;28;20025;-49
2024/01/22 01:47:59;;;;;;;1.00;0.90;;;18.70;49.00;;;;;;5023438;28;20033;-50
2024/01/22 01:50:25;;;;;;;1.23;1.05;;;18.80;49.00;;;;;;5041712;28;20029;-49
2024/01/22 01:52:52;;;;;;;3.40;1.00;;;18.80;48.90;;;;;;5036174;28;20033;-49
2024/01/22 01:55:19;;;;;;;1.52;1.00;;;18.90;48.80;;;;;;5041060;28;20116;-48
2024/01/22 01:57:46;;;;;;;1.00;0.80;;;18.90;48.70;;;;;;5044071;28;20033;-49
2024/01/22 02:00:13;;;;;;;1.42;0.93;;;19.00;48.60;;;;;;5041622;28;20048;-48
2024/01/22 02:02:39;;;;;;;2.53;1.13;;;19.00;48.50;;;;;;5041146;28;20029;-50
2024/01/22 02:05:06;;;;;;;1.15;0.85;;;19.10;48.40;;;;;;5044678;28;20116;-50
2024/01/22 02:07:31;;;;;;;1.70;1.25;;;19.20;48.30;;;;;;5046173;28;20029;-49
2024/01/22 02:09:57;;;;;;;2.00;0.93;;;19.20;48.10;;;;;;5043125;28;20030;-50
2024/01/22 02:12:22;;;;;;;1.45;1.10;;;19.30;48.10;;;;;;5047850;28;20131;-48
2024/01/22 02:14:48;;;;;;;1.05;0.90;;;19.30;48.00;;;;;;5045874;28;20045;-49
2024/01/22 02:17:15;;;;;;;1.20;0.98;;;19.40;48.00;;;;;;5043649;28;20414;-49
2024/01/22 02:19:40;;;;;;;1.55;0.98;;;19.40;47.90;;;;;;5049006;28;20068;-50
2024/01/22 02:22:06;;;;;;;1.05;0.70;;;19.40;47.80;;;;;;5045293;28;20029;-49
2024/01/22 02:24:32;;;;;;;1.20;0.93;;;19.50;47.90;;;;;;5045279;28;20036;-52
2024/01/22 02:26:57;;;;;;;1.02;0.80;;;19.50;47.80;;;;;;5045613;28;20490;-49
2024/01/22 02:29:23;;;;;;;1.10;0.80;;;19.50;47.70;;;;;;5043082;28;20043;-48
2024/01/22 02:31:50;;;;;;;2.05;0.93;;;19.60;47.80;;;;;;5040074;28;20048;-50
2024/01/22 02:34:16;;;;;;;2.20;0.90;;;19.60;47.70;;;;;;5046500;28;20451;-48
2024/01/22 02:36:42;;;;;;;1.13;1.00;;;19.60;47.70;;;;;;5045690;28;20109;-50
2024/01/22 02:39:07;;;;;;;1.42;0.73;;;19.60;47.60;;;;;;5038504;28;20494;-49
2024/01/22 02:41:33;;;;;;;1.92;0.80;;;19.60;47.60;;;;;;5047874;28;20120;-49
2024/01/22 02:43:58;;;;;;;0.55;0.55;;;19.60;47.60;;;;;;5045430;28;20116;-49
2024/01/22 02:46:26;;;;;;;0.95;0.60;;;19.60;47.60;;;;;;5044603;28;20037;-50
2024/01/22 02:48:52;;;;;;;0.85;0.65;;;19.60;47.60;;;;;;5044439;28;20029;-47
2024/01/22 02:51:18;;;;;;;1.30;0.77;;;19.70;47.60;;;;;;5044593;28;20505;-52
2024/01/22 02:53:43;;;;;;;0.80;0.70;;;19.70;47.60;;;;;;5042717;28;20462;-52
2024/01/22 02:56:09;;;;;;;1.27;1.13;;;19.70;47.50;;;;;;5044916;28;20116;-46
2024/01/22 02:58:34;;;;;;;0.70;0.60;;;19.70;47.60;;;;;;5046988;28;20033;-50
2024/01/22 03:01:00;;;;;;;2.08;0.80;;;19.70;47.60;;;;;;5041397;28;20025;-47
2024/01/22 03:03:25;;;;;;;1.02;0.77;;;19.60;47.60;;;;;;5034183;28;20198;-54
2024/01/22 03:05:51;;;;;;;0.65;0.63;;;19.60;47.70;;;;;;5034352;28;20033;-53
2024/01/22 03:08:16;;;;;;;0.80;0.60;;;19.60;47.70;;;;;;5033882;28;20312;-57
2024/01/22 03:10:42;;;;;;;0.77;0.68;;;19.60;47.70;;;;;;5032315;28;20037;-53
2024/01/22 03:13:07;;;;;;;1.10;0.60;;;19.50;47.70;;;;;;5033228;28;20088;-50
2024/01/22 03:15:33;;;;;;;3.55;0.82;;;19.50;47.70;;;;;;5034571;28;20033;-50
2024/01/22 03:17:58;;;;;;;1.25;0.65;;;19.50;47.80;;;;;;5035476;28;20049;-53
2024/01/22 03:20:23;;;;;;;1.20;1.00;;;19.50;47.90;;;;;;5030988;28;20057;-49
2024/01/22 03:22:49;;;;;;;2.20;0.90;;;19.40;47.90;;;;;;5036596;28;20055;-52
2024/01/22 03:25:15;;;;;;;1.00;0.70;;;19.40;47.90;;;;;;5034591;28;20675;-54
2024/01/22 03:27:40;;;;;;;0.88;0.63;;;19.40;48.00;;;;;;5039090;28;20089;-50
2024/01/22 03:30:06;;;;;;;1.05;0.70;;;19.40;48.10;;;;;;5036077;28;20029;-56
2024/01/22 03:32:32;;;;;;;1.02;0.65;;;19.30;48.00;;;;;;5036151;28;20748;-52
2024/01/22 03:34:58;;;;;;;1.75;0.60;;;19.30;48.10;;;;;;5029825;28;20120;-48
2024/01/22 03:37:23;;;;;;;0.82;0.50;;;19.30;48.10;;;;;;5034977;28;20037;-53
2024/01/22 03:39:49;;;;;;;0.57;0.52;;;19.20;48.10;;;;;;5038295;28;20063;-47
2024/01/22 03:42:14;;;;;;;0.57;0.57;;;19.20;48.30;;;;;;5033298;28;20083;-52
2024/01/22 03:44:40;;;;;;;1.17;0.73;;;19.20;48.30;;;;;;5037086;28;20033;-47
2024/01/22 03:47:05;;;;;;;0.88;0.65;;;19.20;48.50;;;;;;5027589;28;20045;-52
2024/01/22 03:49:31;;;;;;;0.93;0.80;;;19.10;48.40;;;;;;5030403;28;20030;-47
2024/01/22 03:51:56;;;;;;;1.42;0.65;;;19.10;48.50;;;;;;5039695;28;20052;-52
2024/01/22 03:54:22;;;;;;;1.35;0.80;;;19.10;48.50;;;;;;5043251;28;20116;-47
2024/01/22 03:56:47;;;;;;;1.02;0.40;;;19.00;48.50;;;;;;5047846;28;20099;-47
2024/01/22 03:59:13;;;;;;;0.65;0.52;;;19.00;48.50;;;;;;5047491;28;20029;-50
2024/01/22 04:01:38;;;;;;;0.75;0.50;;;19.00;48.60;;;;;;5023216;28;20045;-46
2024/01/22 04:04:04;;;;;;;0.60;0.40;;;19.00;48.70;;;;;;5038079;28;20057;-54
2024/01/22 04:06:29;;;;;;;1.15;0.60;;;19.00;49.30;;;;;;5036248;28;20072;-52
2024/01/22 04:08:55;;;;;;;0.68;0.60;;;19.00;48.70;;;;;;5032974;28;20043;-51
2024/01/22 04:11:21;;;;;;;0.50;0.40;;;18.90;48.70;;;;;;5028183;28;20084;-49
2024/01/22 04:13:46;;;;;;;2.58;0.50;;;18.90;48.70;;;;;;5036529;28;20165;-51
2024/01/22 04:16:15;;;;;;;3.60;0.55;;;18.90;48.80;;;;;;5031132;28;20060;-47
2024/01/22 04:18:41;;;;;;;1.17;0.80;;;18.90;48.70;;;;;;5030251;28;20037;-55
2024/01/22 04:21:07;;;;;;;2.00;0.57;;;18.90;48.70;;;;;;5021539;28;20025;-54
2024/01/22 04:23:34;;;;;;;1.15;0.70;;;18.90;48.80;;;;;;5033235;28;20088;-54
2024/01/22 04:26:00;;;;;;;0.55;0.40;;;18.90;48.80;;;;;;5032881;28;20021;-46
2024/01/22 04:28:26;;;;;;;0.82;0.55;;;18.90;48.80;;;;;;5038680;28;20471;-54
2024/01/22 04:30:51;;;;;;;2.10;0.75;;;18.80;48.80;;;;;;5031721;28;20095;-52
2024/01/22 04:33:17;;;;;;;0.80;0.40;;;18.90;48.80;;;;;;5034049;28;20064;-51
2024/01/22 04:35:42;;;;;;;0.90;0.50;;;18.90;48.80;;;;;;5038231;28;20524;-48
2024/01/22 04:38:08;;;;;;;3.10;0.70;;;18.80;48.70;;;;;;5033662;28;20035;-48
2024/01/22 04:40:34;;;;;;;0.85;0.50;;;18.90;48.70;;;;;;5036616;28;20052;-48
2024/01/22 04:42:59;;;;;;;0.90;0.50;;;18.90;48.70;;;;;;5036235;28;20025;-50
2024/01/22 04:45:25;;;;;;;0.77;0.50;;;18.90;48.60;;;;;;5029984;28;20610;-47
2024/01/22 04:47:50;;;;;;;0.60;0.40;;;18.90;48.50;;;;;;5008742;28;20029;-48
2024/01/22 04:50:16;;;;;;;0.50;0.50;;;18.90;48.50;;;;;;5034872;28;20033;-50
2024/01/22 04:52:41;;;;;;;1.10;0.70;;;18.90;48.40;;;;;;5028723;28;20037;-55
2024/01/22 04:55:07;;;;;;;2.40;0.50;;;19.00;48.40;;;;;;5039487;28;20052;-48
2024/01/22 04:57:32;;;;;;;1.33;0.60;;;19.00;48.50;;;;;;5035458;28;20021;-48
2024/01/22 04:59:58;;;;;;;1.33;0.52;;;19.00;48.40;;;;;;5028870;28;20022;-50
2024/01/22 05:02:27;;;;;;;0.82;0.52;;;19.00;48.40;;;;;;5039903;28;20021;-48
2024/01/22 05:05:01;;;;;;;0.70;0.50;;;19.00;48.30;;;;;;5035188;28;20036;-46
2024/01/22 05:07:27;;;;;;;0.85;0.52;;;19.00;48.30;;;;;;5027265;28;20041;-46
2024/01/22 05:09:58;;;;;;;0.60;0.47;;;19.10;48.30;;;;;;5039447;28;20319;-48
2024/01/22 05:12:24;;;;;;;0.75;0.60;;;19.10;48.20;;;;;;5016713;28;20036;-50
2024/01/22 05:14:51;;;;;;;1.08;0.50;;;19.10;48.20;;;;;;5031037;28;20362;-49
2024/01/22 05:17:16;;;;;;;0.60;0.50;;;19.10;48.20;;;;;;5039402;28;20049;-58
2024/01/22 05:19:42;;;;;;;0.63;0.40;;;19.20;48.20;;;;;;5034100;28;20053;-46
2024/01/22 05:22:08;;;;;;;0.95;0.50;;;19.10;48.10;;;;;;5030015;28;20078;-47
2024/01/22 05:24:34;;;;;;;0.85;0.60;;;19.20;48.10;;;;;;5038786;28;20028;-49
2024/01/22 05:27:00;;;;;;;0.80;0.50;;;19.20;48.00;;;;;;5041274;28;20036;-52
2024/01/22 05:29:26;;;;;;;0.75;0.60;;;19.20;48.00;;;;;;5018551;28;20032;-46
2024/01/22 05:31:51;;;;;;;0.57;0.40;;;19.20;48.00;;;;;;5038067;28;20138;-50
2024/01/22 05:34:17;;;;;;;0.85;0.70;;;19.30;48.00;;;;;;5031265;28;20029;-50
2024/01/22 05:36:43;;;;;;;0.60;0.40;;;19.30;47.90;;;;;;5034163;28;20461;-50
2024/01/22 05:39:08;;;;;;;0.57;0.45;;;19.30;47.90;;;;;;5036662;28;20025;-48
2024/01/22 05:41:34;;;;;;;1.23;0.65;;;19.30;47.80;;;;;;5031068;28;20033;-50
2024/01/22 05:44:00;;;;;;;0.50;0.40;;;19.30;47.80;;;;;;5033818;28;20056;-49
2024/01/22 05:46:27;;;;;;;0.68;0.47;;;19.30;47.80;;;;;;5037447;28;20071;-50
2024/01/22 05:48:53;;;;;;;0.45;0.40;;;19.40;47.80;;;;;;5002992;28;20033;-49
2024/01/22 05:51:19;;;;;;;0.40;0.40;;;19.30;47.70;;;;;;5037637;28;20037;-50
2024/01/22 05:53:45;;;;;;;0.52;0.35;;;19.40;47.80;;;;;;5035683;28;20068;-50
2024/01/22 05:56:25;;;;;;;0.57;0.40;;;19.40;47.80;;;;;;5030203;28;20053;-50
2024/01/22 05:58:51;;;;;;;1.23;0.60;;;19.40;47.70;;;;;;5040003;28;20064;-50
2024/01/22 06:01:34;;;;;;;0.30;0.30;;;19.40;47.70;;;;;;5038635;28;20057;-49
2024/01/22 06:04:00;;;;;;;0.93;0.70;;;19.40;47.70;;;;;;5030753;28;20108;-50
2024/01/22 06:06:25;;;;;;;0.60;0.40;;;19.40;47.70;;;;;;5038629;28;20479;-48
2024/01/22 06:08:51;;;;;;;0.50;0.40;;;19.40;47.80;;;;;;5033006;28;20033;-49
2024/01/22 06:11:18;;;;;;;0.73;0.40;;;19.40;47.80;;;;;;5034535;28;20395;-49
2024/01/22 06:13:44;;;;;;;0.55;0.40;;;19.40;47.80;;;;;;5037875;28;20057;-49
2024/01/22 06:16:11;;;;;;;0.98;0.40;;;19.40;47.70;;;;;;5033110;28;20061;-48
2024/01/22 06:18:37;;;;;;;0.70;0.50;;;19.40;47.70;;;;;;5036595;28;20044;-47
2024/01/22 06:21:04;;;;;;;1.75;0.50;;;19.30;47.70;;;;;;5039549;28;20405;-49
2024/01/22 06:23:30;;;;;;;0.50;0.30;;;19.40;48.00;;;;;;5022439;28;20032;-51
2024/01/22 06:25:59;;;;;;;0.75;0.50;;;19.30;47.90;;;;;;5041157;28;20041;-50
2024/01/22 06:28:26;;;;;;;0.52;0.50;;;19.30;47.90;;;;;;5035773;28;20495;-50
2024/01/22 06:30:52;;;;;;;0.45;0.30;;;19.30;48.00;;;;;;5032138;28;20041;-48
2024/01/22 06:33:18;;;;;;;1.00;0.40;;;19.30;48.00;;;;;;5040741;28;20593;-48
2024/01/22 06:35:45;;;;;;;0.95;0.38;;;19.30;48.10;;;;;;5039505;28;20116;-50
2024/01/22 06:38:10;;;;;;;0.90;0.50;;;19.30;48.20;;;;;;5032031;28;20489;-49
2024/01/22 06:40:36;;;;;;;0.77;0.50;;;19.30;48.00;;;;;;5036791;28;20025;-49
2024/01/22 06:43:01;;;;;;;1.55;0.32;;;19.30;48.10;;;;;;5037168;28;20033;-48
2024/01/22 06:45:27;;;;;;;0.63;0.30;;;19.30;48.20;;;;;;5035880;28;20119;-49
2024/01/22 06:47:52;;;;;;;0.68;0.43;;;19.30;48.30;;;;;;5045080;28;20048;-50
2024/01/22 06:50:18;;;;;;;0.70;0.45;;;19.30;48.30;;;;;;5040848;28;20049;-51
2024/01/22 06:52:47;;;;;;;0.70;0.40;;;19.30;48.30;;;;;;5038347;28;20986;-51
2024/01/22 06:55:12;;;;;;;2.47;0.47;;;19.30;48.30;;;;;;5035614;28;20025;-48
2024/01/22 06:57:38;;;;;;;0.77;0.40;;;19.30;48.30;;;;;;5039088;28;20109;-52
2024/01/22 07:00:07;;;;;;;0.38;0.30;;;19.20;48.30;;;;;;5037869;28;20689;-52
2024/01/22 07:02:37;;;;;;;0.50;0.32;;;19.20;48.30;;;;;;5037862;28;20021;-48
2024/01/22 07:05:04;;;;;;;1.95;0.90;;;19.30;48.30;;;;;;5034100;28;20075;-47
2024/01/22 07:07:30;;;;;;;3.25;1.30;;;19.30;48.30;;;;;;5032813;28;20060;-47
2024/01/22 07:09:56;;;;;;;4.78;1.38;;;19.30;48.30;;;;;;5036978;28;20053;-48
2024/01/22 07:12:22;;;;;;;5.85;1.90;;;19.30;48.40;;;;;;5018165;28;20056;-52
2024/01/22 07:14:48;;;;;;;3.78;1.88;;;19.30;48.30;;;;;;5031757;28;20045;-52
2024/01/22 07:17:15;;;;;;;5.07;2.03;;;19.30;48.30;;;;;;5035616;28;20039;-48
2024/01/22 07:19:41;;;;;;;7.20;2.38;;;19.30;48.30;;;;;;5032753;28;20742;-49
2024/01/22 07:22:07;;;;;;;4.15;2.53;;;19.30;48.30;;;;;;5035836;28;20089;-49
2024/01/22 07:24:32;;;;;;;3.10;1.77;;;19.30;48.20;;;;;;5035848;28;20037;-50
2024/01/22 07:26:58;;;;;;;3.97;2.17;;;19.30;48.20;;;;;;5033728;28;20041;-48
2024/01/22 07:29:24;;;;;;;4.25;2.00;;;19.30;48.10;;;;;;5033845;28;20064;-49
2024/01/22 07:31:50;;;;;;;4.95;1.90;;;19.30;48.10;;;;;;5036860;28;20120;-49
2024/01/22 07:34:15;;;;;;;7.00;1.95;;;19.30;48.10;;;;;;5032696;28;20738;-52
2024/01/22 07:36:41;;;;;;;6.97;2.50;;;19.30;48.00;;;;;;5032709;28;20521;-54
2024/01/22 07:39:07;;;;;;;6.38;1.75;;;19.30;48.00;;;;;;5039712;28;20094;-47
2024/01/22 07:41:33;;;;;;;4.22;2.00;;;19.30;48.10;;;;;;5036159;28;20147;-48
2024/01/22 07:43:59;;;;;;;5.38;2.22;;;19.30;48.20;;;;;;5037350;28;20656;-51
2024/01/22 07:46:24;;;;;;;4.18;1.80;;;19.30;48.20;;;;;;5029359;28;20040;-48
2024/01/22 07:48:52;;;;;;;3.13;1.83;;;19.30;48.10;;;;;;5006797;28;20048;-49
2024/01/22 07:51:17;;;;;;;5.93;1.92;;;19.30;48.10;;;;;;5027712;28;20029;-50
2024/01/22 07:53:43;;;;;;;11.40;2.10;;;19.20;48.10;;;;;;5022048;28;20052;-48
2024/01/22 07:56:08;;;;;;;7.60;2.45;;;19.20;48.20;;;;;;5028216;28;20032;-49
2024/01/22 07:58:34;;;;;;;6.80;2.58;;;19.20;48.30;;;;;;5024338;28;20437;-50
2024/01/22 08:00:59;;;;;;;7.45;3.13;;;19.10;48.50;;;;;;5028233;28;20029;-52
2024/01/22 08:03:25;;;;;;;17.00;5.05;;;19.10;48.60;;;;;;5026004;28;20036;-49
2024/01/22 08:05:50;;;;;;;12.40;4.53;;;19.10;49.10;;;;;;5023214;28;20121;-47
2024/01/22 08:08:16;;;;;;;20.00;5.00;;;19.00;49.20;;;;;;5037157;28;20437;-49
2024/01/22 08:10:41;;;;;;;10.63;4.75;;;19.00;49.10;;;;;;5031297;28;20029;-49
2024/01/22 08:13:07;;;;;;;10.88;4.35;;;18.90;49.20;;;;;;5026206;28;20296;-50
2024/01/22 08:15:32;;;;;;;11.27;4.18;;;18.90;49.30;;;;;;5028169;28;20029;-52
2024/01/22 08:17:58;;;;;;;16.83;6.00;;;18.80;49.40;;;;;;5029247;28;20029;-48
2024/01/22 08:20:24;;;;;;;9.27;3.88;;;18.70;49.50;;;;;;5025087;28;20175;-47
2024/01/22 08:22:50;;;;;;;13.45;4.55;;;18.70;49.50;;;;;;5026487;28;20032;-46
2024/01/22 08:25:20;;;;;;;12.00;4.72;;;18.70;49.60;;;;;;4925646;28;20033;-49
2024/01/22 08:27:46;;;;;;;11.48;4.53;;;18.60;49.70;;;;;;4991295;28;21072;-46
2024/01/22 08:30:14;;;;;;;8.88;4.45;;;18.60;49.80;;;;;;5025354;28;20235;-49
2024/01/22 08:32:40;;;;;;;11.68;4.40;;;18.50;49.80;;;;;;5004850;28;20029;-51
2024/01/22 08:35:06;;;;;;;10.00;4.22;;;18.50;49.90;;;;;;4980435;28;20033;-49
2024/01/22 08:37:32;;;;;;;11.50;3.67;;;18.50;49.90;;;;;;5030693;28;20115;-50
2024/01/22 08:39:58;;;;;;;8.68;3.83;;;18.50;49.90;;;;;;5023666;28;20071;-48
2024/01/22 08:42:24;;;;;;;8.85;3.60;;;18.50;49.80;;;;;;5030593;28;20605;-48
2024/01/22 08:44:50;;;;;;;8.23;3.40;;;18.50;49.80;;;;;;5025938;28;20554;-48
2024/01/22 08:47:15;;;;;;;6.90;3.30;;;18.50;49.80;;;;;;5026307;28;20035;-48
2024/01/22 08:49:41;;;;;;;8.60;3.55;;;18.50;49.70;;;;;;5021738;28;20450;-47
2024/01/22 08:52:07;;;;;;;6.10;2.83;;;18.50;49.60;;;;;;5026953;28;20204;-48
2024/01/22 08:54:32;;;;;;;8.15;2.97;;;18.50;50.10;;;;;;5026167;28;20114;-50
2024/01/22 08:56:58;;;;;;;7.53;2.88;;;18.50;49.50;;;;;;5024979;28;20067;-49
2024/01/22 08:59:23;;;;;;;8.18;3.67;;;18.50;49.30;;;;;;5026309;28;20439;-51
2024/01/22 09:01:49;;;;;;;4.28;2.40;;;18.50;49.30;;;;;;5023432;28;20045;-47
2024/01/22 09:04:14;;;;;;;7.70;3.08;;;18.50;49.20;;;;;;5022577;28;20739;-49
2024/01/22 09:06:40;;;;;;;6.18;2.67;;;18.50;49.30;;;;;;5025880;28;20033;-50
2024/01/22 09:09:07;;;;;;;5.30;2.35;;;18.50;49.20;;;;;;5030987;28;20053;-47
2024/01/22 09:11:33;;;;;;;5.78;2.47;;;18.60;49.30;;;;;;5027970;28;20029;-50
2024/01/22 09:13:58;;;;;;;6.45;2.40;;;18.50;49.70;;;;;;5026521;28;20048;-50
2024/01/22 09:16:24;;;;;;;6.63;2.40;;;18.50;49.10;;;;;;5023431;28;20495;-48
2024/01/22 09:18:49;;;;;;;6.75;2.22;;;18.60;49.10;;;;;;5024041;28;20047;-47
2024/01/22 09:21:15;;;;;;;5.55;2.35;;;18.50;48.90;;;;;;5027596;28;20117;-46
2024/01/22 09:23:41;;;;;;;5.10;1.92;;;18.60;48.90;;;;;;5030291;28;20517;-46
2024/01/22 09:26:06;;;;;;;4.07;2.05;;;18.60;48.80;;;;;;5025564;28;20505;-52
2024/01/22 09:28:32;;;;;;;4.65;2.33;;;18.60;48.60;;;;;;5023452;28;20041;-49
2024/01/22 09:30:59;;;;;;;3.83;2.00;;;18.70;48.70;;;;;;5023230;28;20095;-49
2024/01/22 09:33:25;;;;;;;2.90;1.63;;;18.70;48.70;;;;;;5024955;28;20040;-47
2024/01/22 09:35:51;;;;;;;3.40;1.67;;;18.70;48.60;;;;;;5024289;28;20455;-48
2024/01/22 09:38:17;;;;;;;4.45;1.92;;;18.70;48.50;;;;;;5031771;28;20625;-49
2024/01/22 09:40:43;;;;;;;4.03;1.80;;;18.70;48.50;;;;;;5027328;28;20132;-49
2024/01/22 09:43:09;;;;;;;3.25;1.50;;;18.80;48.50;;;;;;5024517;28;20590;-48
2024/01/22 09:45:35;;;;;;;3.65;1.95;;;18.90;48.20;;;;;;5025629;28;20410;-47
2024/01/22 09:48:01;;;;;;;3.35;1.88;;;19.10;48.10;;;;;;5027908;28;20033;-50
2024/01/22 09:50:27;;;;;;;3.25;1.60;;;19.20;48.00;;;;;;5027227;28;20033;-52
2024/01/22 09:52:54;;;;;;;5.35;1.70;;;19.20;47.90;;;;;;5025522;28;20033;-49
2024/01/22 09:55:21;;;;;;;2.65;1.60;;;19.30;47.90;;;;;;5022930;28;20163;-48
2024/01/22 09:57:50;;;;;;;3.70;1.30;;;19.30;47.90;;;;;;5025435;28;20040;-49
2024/01/22 10:00:18;;;;;;;3.53;1.73;;;19.30;47.80;;;;;;5009554;28;20117;-47
2024/01/22 10:02:43;;;;;;;3.40;1.27;;;19.40;48.00;;;;;;5032294;28;20029;-50
2024/01/22 10:05:09;;;;;;;2.40;1.45;;;19.40;47.80;;;;;;5028135;28;20075;-50
2024/01/22 10:07:34;;;;;;;2.83;1.35;;;19.40;47.80;;;;;;5027782;28;20029;-48
2024/01/22 10:10:00;;;;;;;2.50;1.17;;;19.50;47.80;;;;;;5033578;28;20052;-49
2024/01/22 10:12:26;;;;;;;2.00;1.20;;;19.40;47.70;;;;;;5030231;28;20618;-49
2024/01/22 10:14:51;;;;;;;4.75;1.45;;;19.50;47.80;;;;;;5032504;28;20032;-48
2024/01/22 10:17:18;;;;;;;3.08;1.35;;;19.50;47.70;;;;;;5036006;28;20033;-47
2024/01/22 10:19:46;;;;;;;2.50;1.02;;;19.50;47.70;;;;;;5028561;23;20037;-55
2024/01/22 10:22:13;;;;;;;3.10;2.00;;;19.50;47.70;;;;;;5018851;28;20041;-55
2024/01/22 10:24:39;;;;;;;2.95;1.25;;;19.50;47.80;;;;;;5017097;28;20030;-54
2024/01/22 10:27:15;;;;;;;2.75;1.10;;;19.50;47.80;;;;;;5011523;28;20045;-54
2024/01/22 10:29:43;;;;;;;;;;;19.50;47.80;;;;;;5020240;28;20060;-55
2024/01/22 10:32:08;;;;;;;3.50;1.23;;;19.50;47.80;;;;;;5018577;28;19917;-53
2024/01/22 10:34:50;;;;;;;2.70;1.23;;;19.60;47.80;;;;;;5016695;28;20037;-55
2024/01/22 10:37:17;;;;;;;1.20;1.05;;;19.60;47.90;;;;;;5021769;28;20026;-53
2024/01/22 10:39:44;;;;;;;2.58;0.90;;;19.50;47.70;;;;;;5017197;28;20253;-55
2024/01/22 10:42:11;;;;;;;2.30;1.38;;;19.60;47.80;;;;;;5017070;28;20029;-55
2024/01/22 10:44:44;;;;;;;1.95;0.80;;;19.60;47.80;;;;;;5020277;28;20100;-57
2024/01/22 10:47:17;;;;;;;3.05;0.98;;;19.60;47.80;;;;;;5007043;28;20408;-53
2024/01/22 10:49:43;;;;;;;2.13;1.02;;;19.70;47.70;;;;;;5020013;28;20140;-54
2024/01/22 10:52:09;;;;;;;2.97;1.30;;;19.70;47.80;;;;;;5023009;28;20038;-54
2024/01/22 10:54:36;;;;;;;4.30;1.60;;;19.70;47.80;;;;;;5018417;28;20044;-55
2024/01/22 10:57:03;;;;;;;2.85;1.23;;;19.70;47.90;;;;;;5017492;28;20168;-54
2024/01/22 10:59:31;;;;;;;3.70;1.42;;;19.70;47.90;;;;;;5021062;28;20098;-54
2024/01/22 11:01:58;;;;;;;2.92;1.10;;;19.70;47.90;;;;;;5017607;28;20025;-55
2024/01/22 11:04:29;;;;;;;2.83;1.63;;;19.70;48.10;;;;;;5016792;28;20032;-57
2024/01/22 11:06:59;;;;;;;3.33;1.17;;;19.70;48.10;;;;;;5016799;28;20033;-56
2024/01/22 11:09:30;;;;;;;3.85;1.33;;;19.70;48.10;;;;;;5016646;28;20033;-53
2024/01/22 11:11:59;;;;;;;4.20;1.50;;;19.70;48.10;;;;;;5017047;28;20029;-55
2024/01/22 11:14:24;;;;;;;3.08;1.10;;;19.60;48.20;;;;;;5016053;28;20520;-55
2024/01/22 11:16:50;;;;;;;2.22;1.10;;;19.60;48.30;;;;;;5016768;28;20037;-55
2024/01/22 11:19:22;;;;;;;2.25;0.95;;;19.60;48.30;;;;;;5016700;28;20038;-54
2024/01/22 11:21:49;;;;;;;2.97;1.10;;;19.50;48.40;;;;;;5016623;28;20062;-55
2024/01/22 11:24:19;;;;;;;4.30;1.20;;;19.50;48.50;;;;;;5014730;28;20109;-53
2024/01/22 11:27:02;;;;;;;4.68;1.23;;;19.50;48.60;;;;;;5018829;28;20113;-56
2024/01/22 11:29:29;;;;;;;2.95;0.95;;;19.40;48.60;;;;;;5015172;28;20044;-54
2024/01/22 11:31:59;;;;;;;1.75;1.05;;;19.40;48.70;;;;;;5014437;28;20037;-54
2024/01/22 11:34:39;;;;;;;3.65;1.20;;;19.40;48.70;;;;;;5018210;28;20042;-56
2024/01/22 11:37:05;;;;;;;2.10;1.20;;;19.40;48.70;;;;;;5016823;28;20040;-53
2024/01/22 11:39:35;;;;;;;1.77;1.02;;;19.40;48.80;;;;;;5015625;28;20033;-56
2024/01/22 11:42:15;;;;;;;1.55;0.90;;;19.40;48.90;;;;;;5019158;28;20036;-57
2024/01/22 11:44:46;;;;;;;2.33;0.82;;;19.40;48.90;;;;;;5017749;28;20030;-55
2024/01/22 11:47:12;;;;;;;1.80;1.20;;;19.40;48.90;;;;;;5018944;28;20022;-55
2024/01/22 11:49:38;;;;;;;2.22;1.13;;;19.30;48.90;;;;;;5006309;28;20041;-57
2024/01/22 11:52:17;;;;;;;4.00;0.80;;;19.30;48.90;;;;;;5015639;28;20436;-55
2024/01/22 11:54:55;;;;;;;1.42;0.85;;;19.30;49.60;;;;;;5016640;28;20038;-56
2024/01/22 12:00:11;;;;;;;1.38;0.88;;;19.20;49.00;;;;;;4993192;28;20046;-46
2024/01/22 12:02:41;;;;;;;1.80;0.70;;;19.20;49.10;;;;;;4997142;28;20435;-49
2024/01/22 12:05:12;;;;;;;1.55;0.88;;;19.20;49.10;;;;;;4995109;28;20037;-56
2024/01/22 12:07:42;;;;;;;2.65;1.05;;;19.20;49.10;;;;;;4993817;28;20573;-53
2024/01/22 12:10:21;;;;;;;3.05;1.20;;;19.20;49.20;;;;;;4995757;28;20057;-56
2024/01/22 12:12:59;;;;;;;2.22;0.80;;;19.10;49.20;;;;;;4984824;28;20092;-47
2024/01/22 12:15:27;;;;;;;3.70;0.80;;;19.10;49.30;;;;;;4991739;28;20041;-45
2024/01/22 12:17:53;;;;;;;1.50;0.77;;;19.10;49.30;;;;;;4994667;28;20553;-46
2024/01/22 12:20:20;;;;;;;1.83;0.77;;;19.10;49.40;;;;;;4990393;28;21505;-49
2024/01/22 12:22:54;;;;;;;1.20;0.70;;;19.10;49.40;;;;;;4992147;28;20035;-45
2024/01/22 12:25:20;;;;;;;1.90;1.17;;;19.00;49.40;;;;;;4991589;28;20022;-54
2024/01/22 12:27:47;;;;;;;1.20;0.60;;;19.10;49.50;;;;;;4994844;28;20053;-46
2024/01/22 12:30:17;;;;;;;1.13;0.80;;;19.10;49.60;;;;;;4991818;28;20027;-46
2024/01/22 12:32:52;;;;;;;1.48;0.98;;;19.10;49.60;;;;;;4995709;28;20061;-49
2024/01/22 12:35:22;;;;;;;1.27;0.70;;;19.10;49.70;;;;;;4990648;28;20608;-54
2024/01/22 12:37:47;;;;;;;1.20;0.70;;;19.20;49.70;;;;;;4997260;28;20085;-48
2024/01/22 12:40:17;;;;;;;2.35;1.00;;;19.20;49.70;;;;;;4990215;28;20522;-53
2024/01/22 12:42:48;;;;;;;1.55;0.80;;;19.20;49.70;;;;;;4991642;28;20511;-46
2024/01/22 12:45:19;;;;;;;1.67;1.00;;;19.20;49.80;;;;;;4988302;28;20044;-53